createdAt,value
2023-05-24T00:01:38.539Z,62.50
2023-05-24T00:04:06.698Z,63.11
2023-05-24T00:06:36.501Z,63.57
2023-05-24T00:09:06.339Z,63.17
2023-05-24T00:11:34.816Z,63.77
2023-05-24T00:14:03.100Z,63.59
2023-05-24T00:16:31.360Z,63.55
2023-05-24T00:18:59.387Z,64.16
2023-05-24T00:21:27.557Z,64.17
2023-05-24T00:23:55.895Z,64.35
2023-05-24T00:26:26.218Z,64.48
2023-05-24T00:28:56.330Z,64.50
2023-05-24T00:31:24.533Z,64.61
2023-05-24T00:33:52.637Z,64.87
2023-05-24T00:36:23.621Z,65.36
2023-05-24T00:38:54.067Z,65.00
2023-05-24T00:41:22.316Z,65.00
2023-05-24T00:43:52.544Z,65.21
2023-05-24T00:46:23.329Z,66.16
2023-05-24T00:48:52.585Z,65.79
2023-05-24T00:51:20.847Z,66.01
2023-05-24T00:53:50.550Z,65.69
2023-05-24T00:56:21.039Z,65.54
2023-05-24T00:58:50.607Z,65.70
2023-05-24T01:01:20.311Z,66.40
2023-05-24T01:03:48.814Z,66.85
2023-05-24T01:06:18.872Z,66.71
2023-05-24T01:09:03.223Z,67.02
2023-05-24T01:11:42.207Z,67.54
2023-05-24T01:14:21.378Z,67.04
2023-05-24T01:17:03.223Z,67.60
2023-05-24T01:19:51.309Z,67.90
2023-05-24T01:22:41.164Z,67.75
2023-05-24T01:25:30.114Z,67.50
2023-05-24T01:28:04.629Z,67.41
2023-05-24T01:30:34.219Z,67.87
2023-05-24T01:33:04.094Z,68.22
2023-05-24T01:35:32.260Z,68.47
2023-05-24T01:38:00.472Z,67.99
2023-05-24T01:40:28.780Z,68.35
2023-05-24T01:43:05.744Z,68.29
2023-05-24T01:45:41.102Z,68.45
2023-05-24T01:48:19.395Z,68.43
2023-05-24T01:50:51.289Z,68.81
2023-05-24T01:53:22.084Z,68.42
2023-05-24T01:55:55.217Z,68.17
2023-05-24T01:58:27.209Z,68.73
2023-05-24T02:00:56.159Z,68.87
2023-05-24T02:03:24.653Z,69.04
2023-05-24T02:05:53.074Z,69.41
2023-05-24T02:08:21.354Z,69.64
2023-05-24T02:10:50.704Z,69.42
2023-05-24T02:13:20.085Z,69.31
2023-05-24T02:15:50.069Z,69.80
2023-05-24T02:18:19.113Z,70.42
2023-05-24T02:20:47.406Z,70.09
2023-05-24T02:23:15.569Z,70.52
2023-05-24T02:25:43.622Z,70.12
2023-05-24T02:28:11.742Z,70.53
2023-05-24T02:30:40.043Z,70.75
2023-05-24T02:33:09.899Z,70.93
2023-05-24T02:35:38.474Z,71.24
2023-05-24T02:38:06.969Z,71.29
2023-05-24T02:40:37.520Z,71.44
2023-05-24T02:43:05.636Z,71.37
2023-05-24T02:45:33.898Z,72.04
2023-05-24T02:48:02.091Z,71.83
2023-05-24T02:50:31.854Z,72.29
2023-05-24T02:52:59.914Z,71.99
2023-05-24T02:55:29.216Z,72.02
2023-05-24T02:57:57.144Z,72.98
2023-05-24T03:00:25.247Z,72.85
2023-05-24T03:02:53.170Z,73.15
2023-05-24T03:05:21.152Z,73.32
2023-05-24T03:07:55.009Z,73.40
2023-05-24T03:10:23.436Z,73.38
2023-05-24T03:12:52.228Z,73.49
2023-05-24T03:15:21.378Z,73.44
2023-05-24T03:17:50.264Z,73.78
2023-05-24T03:20:21.343Z,73.52
2023-05-24T03:22:51.429Z,73.46
2023-05-24T03:25:20.403Z,73.42
2023-05-24T03:27:48.693Z,73.38
2023-05-24T03:30:20.282Z,73.21
2023-05-24T03:32:48.421Z,73.36
2023-05-24T03:35:18.928Z,73.85
2023-05-24T03:37:47.536Z,73.81
2023-05-24T03:40:34.809Z,73.46
2023-05-24T03:43:04.634Z,73.60
2023-05-24T03:45:39.130Z,73.44
2023-05-24T03:48:08.711Z,73.44
2023-05-24T03:50:39.346Z,73.72
2023-05-24T03:53:07.604Z,74.38
2023-05-24T03:55:39.376Z,73.60
2023-05-24T03:58:07.877Z,73.78
2023-05-24T04:00:38.160Z,74.33
2023-05-24T04:03:07.624Z,74.01
2023-05-24T04:05:37.628Z,74.64
2023-05-24T04:08:05.738Z,73.87
2023-05-24T04:10:34.477Z,74.23
2023-05-24T04:13:04.777Z,74.31
2023-05-24T04:15:34.860Z,74.02
2023-05-24T04:18:03.412Z,74.04
2023-05-24T04:20:32.311Z,74.23
2023-05-24T04:23:01.037Z,73.83
2023-05-24T04:25:29.676Z,73.67
2023-05-24T04:27:57.888Z,73.60
2023-05-24T04:30:29.889Z,74.00
2023-05-24T04:32:58.478Z,74.28
2023-05-24T04:35:28.204Z,74.37
2023-05-24T04:37:56.623Z,75.04
2023-05-24T04:40:25.204Z,75.14
2023-05-24T04:42:55.584Z,74.89
2023-05-24T04:45:24.036Z,74.95
2023-05-24T04:47:53.810Z,74.75
2023-05-24T04:50:21.971Z,74.48
2023-05-24T04:52:50.239Z,75.11
2023-05-24T04:55:18.506Z,74.57
2023-05-24T04:57:46.766Z,73.73
2023-05-24T05:00:15.752Z,73.74
2023-05-24T05:02:44.072Z,74.18
2023-05-24T05:05:14.985Z,73.80
2023-05-24T05:07:45.165Z,73.88
2023-05-24T05:10:14.032Z,73.75
2023-05-24T05:12:42.794Z,74.29
2023-05-24T05:15:13.574Z,74.47
2023-05-24T05:17:43.240Z,74.34
2023-05-24T05:20:12.922Z,73.67
2023-05-24T05:22:47.211Z,74.17
2023-05-24T05:25:16.765Z,74.25
2023-05-24T05:27:45.289Z,74.33
2023-05-24T05:30:14.145Z,74.27
2023-05-24T05:32:42.455Z,73.74
2023-05-24T05:35:11.047Z,74.25
2023-05-24T05:37:39.128Z,74.10
2023-05-24T05:40:10.693Z,73.75
2023-05-24T05:42:38.688Z,73.30
2023-05-24T05:45:08.031Z,73.50
2023-05-24T05:47:36.870Z,73.50
2023-05-24T05:50:05.354Z,73.70
2023-05-24T05:52:33.589Z,73.34
2023-05-24T05:55:01.809Z,72.85
2023-05-24T05:57:31.459Z,72.44
2023-05-24T05:59:59.528Z,72.12
2023-05-24T06:02:27.549Z,71.77
2023-05-24T06:04:55.659Z,71.08
2023-05-24T06:07:23.787Z,70.56
2023-05-24T06:09:51.854Z,70.32
2023-05-24T06:12:20.004Z,69.82
2023-05-24T06:14:50.869Z,69.48
2023-05-24T06:17:19.114Z,68.71
2023-05-24T06:19:46.992Z,68.52
2023-05-24T06:22:14.952Z,68.71
2023-05-24T06:24:43.867Z,68.56
2023-05-24T06:27:22.697Z,67.98
2023-05-24T06:29:52.536Z,67.12
2023-05-24T06:32:21.218Z,66.74
2023-05-24T06:34:53.647Z,66.74
2023-05-24T06:37:26.396Z,66.18
2023-05-24T06:39:54.597Z,66.90
2023-05-24T06:42:22.862Z,67.97
2023-05-24T06:44:52.733Z,67.42
2023-05-24T06:47:20.956Z,66.50
2023-05-24T06:49:50.290Z,65.28
2023-05-24T06:52:18.652Z,65.57
2023-05-24T06:54:46.850Z,65.61
2023-05-24T06:57:15.546Z,65.57
2023-05-24T06:59:43.868Z,63.77
2023-05-24T07:02:14.016Z,62.94
2023-05-24T07:04:42.604Z,63.33
2023-05-24T07:10:02.964Z,63.75
2023-05-24T07:12:32.748Z,64.99
2023-05-24T07:15:00.860Z,64.30
2023-05-24T07:17:31.167Z,63.81
2023-05-24T07:19:59.610Z,62.07
2023-05-24T07:22:29.503Z,61.47
2023-05-24T07:24:57.883Z,60.69
2023-05-24T07:27:26.289Z,59.24
2023-05-24T07:29:54.806Z,60.15
2023-05-24T07:32:23.411Z,59.85
2023-05-24T07:34:54.800Z,60.45
2023-05-24T07:37:24.470Z,60.15
2023-05-24T07:39:54.181Z,60.07
2023-05-24T07:42:22.810Z,60.43
2023-05-24T07:44:51.130Z,60.75
2023-05-24T07:47:19.703Z,59.65
2023-05-24T07:49:48.033Z,59.82
2023-05-24T07:52:20.476Z,59.89
2023-05-24T07:54:48.549Z,60.19
2023-05-24T07:57:27.353Z,59.41
2023-05-24T07:59:55.537Z,59.10
2023-05-24T08:02:26.110Z,60.01
2023-05-24T08:04:54.490Z,58.72
2023-05-24T08:07:24.419Z,57.69
2023-05-24T08:09:52.915Z,58.01
2023-05-24T08:12:22.810Z,57.64
2023-05-24T08:14:50.682Z,57.56
2023-05-24T08:17:18.652Z,55.80
2023-05-24T08:19:46.808Z,55.46
2023-05-24T08:22:14.916Z,55.46
2023-05-24T08:24:45.948Z,54.44
2023-05-24T08:27:14.196Z,55.17
2023-05-24T08:29:42.299Z,55.15
2023-05-24T08:32:10.969Z,54.42
2023-05-24T08:34:39.259Z,54.96
2023-05-24T08:37:07.241Z,52.53
2023-05-24T08:39:40.634Z,52.75
2023-05-24T08:42:11.127Z,51.57
2023-05-24T08:44:43.831Z,52.00
2023-05-24T08:47:13.970Z,52.51
2023-05-24T08:49:47.749Z,54.04
2023-05-24T08:52:15.970Z,54.65
2023-05-24T08:54:44.901Z,52.80
2023-05-24T08:57:15.252Z,53.68
2023-05-24T08:59:44.197Z,52.98
2023-05-24T09:02:15.125Z,53.15
2023-05-24T09:04:45.023Z,53.17
2023-05-24T09:07:15.282Z,54.12
2023-05-24T09:09:45.566Z,52.41
2023-05-24T09:12:35.430Z,52.67
2023-05-24T09:15:08.524Z,51.99
2023-05-24T09:17:41.869Z,51.80
2023-05-24T09:20:12.016Z,52.38
2023-05-24T09:22:44.232Z,51.88
2023-05-24T09:25:15.551Z,51.57
2023-05-24T09:27:50.483Z,50.40
2023-05-24T09:30:19.970Z,50.66
2023-05-24T09:32:59.466Z,51.15
2023-05-24T09:35:28.402Z,49.64
2023-05-24T09:38:00.260Z,49.77
2023-05-24T09:40:32.564Z,49.71
2023-05-24T09:49:55.142Z,51.99
2023-05-24T09:52:52.884Z,51.31
2023-05-24T09:55:42.512Z,49.85
2023-05-24T09:58:18.767Z,50.36
2023-05-24T10:00:47.520Z,50.20
2023-05-24T10:03:18.392Z,49.27
2023-05-24T10:05:48.880Z,48.49
2023-05-24T10:08:19.762Z,48.02
2023-05-24T10:10:50.474Z,48.58
2023-05-24T10:13:26.026Z,48.92
2023-05-24T10:15:57.180Z,47.10
2023-05-24T10:18:27.097Z,48.06
2023-05-24T10:20:57.437Z,47.67
2023-05-24T10:23:28.703Z,46.86
2023-05-24T10:26:06.842Z,46.39
2023-05-24T10:28:42.530Z,46.33
2023-05-24T10:31:22.649Z,46.67
2023-05-24T10:34:06.534Z,46.89
2023-05-24T10:36:51.896Z,45.53
2023-05-24T10:39:30.941Z,44.26
2023-05-24T10:42:03.457Z,45.25
2023-05-24T10:44:39.846Z,46.08
2023-05-24T10:47:16.184Z,47.05
2023-05-24T10:49:51.784Z,47.24
2023-05-24T10:52:35.088Z,47.06
2023-05-24T10:55:11.328Z,48.21
2023-05-24T10:57:42.010Z,47.87
2023-05-24T11:00:41.555Z,48.52
2023-05-24T11:03:20.024Z,48.59
2023-05-24T11:05:55.306Z,48.20
2023-05-24T11:08:26.422Z,47.32
2023-05-24T11:11:25.637Z,47.08
2023-05-24T11:13:58.966Z,47.44
2023-05-24T11:16:42.829Z,47.63
2023-05-24T11:19:25.260Z,47.89
2023-05-24T11:21:58.922Z,48.60
2023-05-24T11:27:33.800Z,49.86
2023-05-24T11:30:06.265Z,49.58
2023-05-24T11:32:36.195Z,49.98
2023-05-24T11:35:11.952Z,49.52
2023-05-24T11:37:46.606Z,49.06
2023-05-24T11:40:16.764Z,49.29
2023-05-24T11:42:51.792Z,49.79
2023-05-24T11:45:24.134Z,49.37
2023-05-24T11:47:55.254Z,48.78
2023-05-24T11:50:53.891Z,48.49
2023-05-24T11:53:32.965Z,48.43
2023-05-24T11:56:02.001Z,48.56
2023-05-24T11:58:53.174Z,48.46
2023-05-24T12:01:40.945Z,48.82
2023-05-24T12:04:18.872Z,48.74
2023-05-24T12:07:16.125Z,49.00
2023-05-24T12:10:31.382Z,48.46
2023-05-24T12:13:34.702Z,47.70
2023-05-24T12:16:14.842Z,48.42
2023-05-24T12:19:05.255Z,48.38
2023-05-24T12:22:55.196Z,48.19
2023-05-24T12:25:55.021Z,49.04
2023-05-24T12:28:41.345Z,49.07
2023-05-24T12:31:29.612Z,48.47
2023-05-24T12:34:07.873Z,47.42
2023-05-24T12:36:46.804Z,48.24
2023-05-24T12:42:31.359Z,46.43
2023-05-24T12:45:44.525Z,46.19
2023-05-24T12:48:29.462Z,45.33
2023-05-24T12:54:20.401Z,45.33
2023-05-24T12:56:49.751Z,46.18
2023-05-24T12:59:19.264Z,46.88
2023-05-24T13:02:27.555Z,46.14
2023-05-24T13:05:01.815Z,46.16
2023-05-24T13:07:33.072Z,46.92
2023-05-24T13:10:01.714Z,46.20
2023-05-24T13:12:29.877Z,46.87
2023-05-24T13:14:59.502Z,45.18
2023-05-24T13:17:29.458Z,45.73
2023-05-24T13:20:00.788Z,45.68
2023-05-24T13:22:29.144Z,45.57
2023-05-24T13:24:57.404Z,46.32
2023-05-24T13:30:12.599Z,46.76
2023-05-24T13:32:41.281Z,47.09
2023-05-24T13:35:12.199Z,46.54
2023-05-24T13:37:41.131Z,46.29
2023-05-24T13:40:27.065Z,46.68
2023-05-24T13:42:58.158Z,47.43
2023-05-24T13:45:30.347Z,46.77
2023-05-24T13:48:04.015Z,47.42
2023-05-24T13:50:32.678Z,47.27
2023-05-24T13:53:03.598Z,46.94
2023-05-24T13:55:34.166Z,46.61
2023-05-24T13:58:04.944Z,46.61
2023-05-24T14:00:36.194Z,45.20
2023-05-24T14:03:06.079Z,45.41
2023-05-24T14:05:34.514Z,45.98
2023-05-24T14:08:07.100Z,45.92
2023-05-24T14:10:41.904Z,45.65
2023-05-24T14:13:36.771Z,45.20
2023-05-24T14:16:06.625Z,45.43
2023-05-24T14:18:44.061Z,45.78
2023-05-24T14:21:15.474Z,45.71
2023-05-24T14:23:43.608Z,44.77
2023-05-24T14:26:17.124Z,45.74
2023-05-24T14:28:45.466Z,45.52
2023-05-24T14:31:19.422Z,45.40
2023-05-24T14:33:49.538Z,45.27
2023-05-24T14:36:18.029Z,45.66
2023-05-24T14:38:46.893Z,46.33
2023-05-24T14:41:19.347Z,47.26
2023-05-24T14:43:50.823Z,46.07
2023-05-24T14:46:21.568Z,46.09
2023-05-24T14:48:54.327Z,46.13
2023-05-24T14:51:29.724Z,46.63
2023-05-24T14:53:58.113Z,45.95
2023-05-24T14:56:28.128Z,46.15
2023-05-24T14:58:56.521Z,44.92
2023-05-24T15:01:29.038Z,45.45
2023-05-24T15:04:06.567Z,45.64
2023-05-24T15:06:48.321Z,46.37
2023-05-24T15:09:20.134Z,45.92
2023-05-24T15:11:48.444Z,46.34
2023-05-24T15:14:18.893Z,46.12
2023-05-24T15:16:51.189Z,46.15
2023-05-24T15:19:25.103Z,46.34
2023-05-24T15:22:04.641Z,47.15
2023-05-24T15:24:46.941Z,46.53
2023-05-24T15:27:16.755Z,46.13
2023-05-24T15:29:54.579Z,45.36
2023-05-24T15:32:25.125Z,45.70
2023-05-24T15:34:53.341Z,45.61
2023-05-24T15:37:54.648Z,45.11
2023-05-24T15:43:54.455Z,46.09
2023-05-24T15:46:22.851Z,45.98
2023-05-24T15:49:11.111Z,46.44
2023-05-24T15:52:03.137Z,46.45
2023-05-24T15:54:53.511Z,47.04
2023-05-24T15:57:30.184Z,47.59
2023-05-24T15:59:58.641Z,48.06
2023-05-24T16:02:46.889Z,47.90
2023-05-24T16:05:22.650Z,47.05
2023-05-24T16:07:56.676Z,46.50
2023-05-24T16:10:56.051Z,46.29
2023-05-24T16:13:30.272Z,46.32
2023-05-24T16:17:01.053Z,44.53
2023-05-24T16:22:56.535Z,45.34
2023-05-24T16:25:25.795Z,45.57
2023-05-24T16:29:00.987Z,46.50
2023-05-24T16:32:11.233Z,46.44
2023-05-24T16:34:55.402Z,47.35
2023-05-24T16:37:38.887Z,47.10
2023-05-24T16:40:18.315Z,47.21
2023-05-24T16:43:07.027Z,47.71
2023-05-24T16:46:08.475Z,47.88
2023-05-24T16:49:00.638Z,48.29
2023-05-24T16:51:49.668Z,48.10
2023-05-24T16:54:32.648Z,48.06
2023-05-24T16:57:08.387Z,48.40
2023-05-24T16:59:44.037Z,47.96
2023-05-24T17:02:22.057Z,48.45
2023-05-24T17:04:56.471Z,47.09
2023-05-24T17:08:16.334Z,47.12
2023-05-24T17:11:15.849Z,46.89
2023-05-24T17:13:59.190Z,46.96
2023-05-24T17:16:57.447Z,47.53
2023-05-24T17:19:50.957Z,47.38
2023-05-24T17:22:57.524Z,47.50
2023-05-24T17:26:56.870Z,48.26
2023-05-24T17:29:54.900Z,48.45
2023-05-24T17:32:53.661Z,48.50
2023-05-24T17:35:33.709Z,48.78
2023-05-24T17:38:40.781Z,48.63
2023-05-24T17:41:45.233Z,48.62
2023-05-24T17:44:14.782Z,48.99
2023-05-24T17:46:43.919Z,49.21
2023-05-24T17:49:12.754Z,49.72
2023-05-24T17:51:48.291Z,49.31
2023-05-24T17:54:22.837Z,49.53
2023-05-24T17:56:51.646Z,48.88
2023-05-24T17:59:21.955Z,49.58
2023-05-24T18:02:14.831Z,49.47
2023-05-24T18:04:46.025Z,49.66
2023-05-24T18:07:17.171Z,49.76
2023-05-24T18:10:14.997Z,50.20
2023-05-24T18:20:56.639Z,49.19
2023-05-24T18:23:25.115Z,49.00
2023-05-24T18:26:00.378Z,49.59
2023-05-24T18:32:14.432Z,49.35
2023-05-24T18:34:47.856Z,49.36
2023-05-24T18:38:00.170Z,49.23
2023-05-24T18:47:05.277Z,50.01
2023-05-24T18:49:34.674Z,50.31
2023-05-24T18:55:56.120Z,50.99
2023-05-24T20:56:53.062Z,58.73
2023-05-24T20:59:39.048Z,58.74
2023-05-24T21:02:40.544Z,59.35
2023-05-24T22:21:24.061Z,62.82
